sensor_id;sensor_type;location;lat;lon;timestamp;P1;durP1;ratioP1;P2;durP2;ratioP2
73296;SDS011;61524;50.938;11.396;2023-06-22T00:01:02;12.80;;;8.88;;
73296;SDS011;61524;50.938;11.396;2023-06-22T00:03:28;13.30;;;10.00;;
73296;SDS011;61524;50.938;11.396;2023-06-22T00:05:53;13.32;;;8.50;;
73296;SDS011;61524;50.938;11.396;2023-06-22T00:08:19;12.27;;;9.23;;
73296;SDS011;61524;50.938;11.396;2023-06-22T00:10:45;14.32;;;8.70;;
73296;SDS011;61524;50.938;11.396;2023-06-22T00:13:11;15.23;;;8.95;;
73296;SDS011;61524;50.938;11.396;2023-06-22T00:15:39;12.88;;;8.70;;
73296;SDS011;61524;50.938;11.396;2023-06-22T00:18:06;11.85;;;8.70;;
73296;SDS011;61524;50.938;11.396;2023-06-22T00:20:32;12.00;;;8.35;;
73296;SDS011;61524;50.938;11.396;2023-06-22T00:23:01;11.05;;;8.00;;
73296;SDS011;61524;50.938;11.396;2023-06-22T00:27:53;10.67;;;7.17;;
73296;SDS011;61524;50.938;11.396;2023-06-22T00:30:18;10.80;;;8.77;;
73296;SDS011;61524;50.938;11.396;2023-06-22T00:32:44;14.23;;;9.40;;
73296;SDS011;61524;50.938;11.396;2023-06-22T00:35:11;12.88;;;8.05;;
73296;SDS011;61524;50.938;11.396;2023-06-22T00:37:38;12.70;;;8.00;;
73296;SDS011;61524;50.938;11.396;2023-06-22T00:40:07;12.00;;;8.57;;
73296;SDS011;61524;50.938;11.396;2023-06-22T00:42:36;13.43;;;8.05;;
73296;SDS011;61524;50.938;11.396;2023-06-22T00:45:01;13.80;;;8.13;;
73296;SDS011;61524;50.938;11.396;2023-06-22T00:47:27;13.23;;;9.60;;
73296;SDS011;61524;50.938;11.396;2023-06-22T00:49:53;12.10;;;8.80;;
73296;SDS011;61524;50.938;11.396;2023-06-22T00:52:21;13.65;;;7.93;;
73296;SDS011;61524;50.938;11.396;2023-06-22T00:54:52;11.45;;;8.35;;
73296;SDS011;61524;50.938;11.396;2023-06-22T00:57:18;10.63;;;7.35;;
73296;SDS011;61524;50.938;11.396;2023-06-22T01:02:11;9.98;;;7.45;;
73296;SDS011;61524;50.938;11.396;2023-06-22T01:04:37;12.05;;;7.32;;
73296;SDS011;61524;50.938;11.396;2023-06-22T01:09:36;14.18;;;9.18;;
73296;SDS011;61524;50.938;11.396;2023-06-22T01:12:27;11.02;;;7.88;;
73296;SDS011;61524;50.938;11.396;2023-06-22T01:15:02;12.30;;;8.80;;
73296;SDS011;61524;50.938;11.396;2023-06-22T01:17:34;11.20;;;8.65;;
73296;SDS011;61524;50.938;11.396;2023-06-22T01:20:01;12.20;;;7.95;;
73296;SDS011;61524;50.938;11.396;2023-06-22T01:22:30;11.63;;;8.05;;
73296;SDS011;61524;50.938;11.396;2023-06-22T01:25:21;11.07;;;7.88;;
73296;SDS011;61524;50.938;11.396;2023-06-22T01:30:48;10.70;;;7.53;;
73296;SDS011;61524;50.938;11.396;2023-06-22T01:33:15;11.40;;;8.02;;
73296;SDS011;61524;50.938;11.396;2023-06-22T01:35:41;11.90;;;8.13;;
73296;SDS011;61524;50.938;11.396;2023-06-22T01:38:08;10.40;;;8.05;;
73296;SDS011;61524;50.938;11.396;2023-06-22T01:40:34;11.57;;;8.05;;
73296;SDS011;61524;50.938;11.396;2023-06-22T01:43:01;14.15;;;8.45;;
73296;SDS011;61524;50.938;11.396;2023-06-22T01:45:28;11.68;;;7.32;;
73296;SDS011;61524;50.938;11.396;2023-06-22T01:47:54;11.75;;;8.77;;
73296;SDS011;61524;50.938;11.396;2023-06-22T01:50:20;14.57;;;9.32;;
73296;SDS011;61524;50.938;11.396;2023-06-22T01:52:46;11.13;;;8.63;;
73296;SDS011;61524;50.938;11.396;2023-06-22T01:55:11;11.45;;;8.57;;
73296;SDS011;61524;50.938;11.396;2023-06-22T01:57:37;12.02;;;8.30;;
73296;SDS011;61524;50.938;11.396;2023-06-22T02:05:03;12.35;;;8.23;;
73296;SDS011;61524;50.938;11.396;2023-06-22T02:07:35;15.13;;;8.00;;
73296;SDS011;61524;50.938;11.396;2023-06-22T02:10:28;11.25;;;9.18;;
73296;SDS011;61524;50.938;11.396;2023-06-22T02:12:54;11.52;;;8.60;;
73296;SDS011;61524;50.938;11.396;2023-06-22T02:15:22;15.65;;;8.95;;
73296;SDS011;61524;50.938;11.396;2023-06-22T02:17:48;14.02;;;8.32;;
73296;SDS011;61524;50.938;11.396;2023-06-22T02:20:14;11.23;;;8.30;;
73296;SDS011;61524;50.938;11.396;2023-06-22T02:22:40;14.07;;;8.25;;
73296;SDS011;61524;50.938;11.396;2023-06-22T02:25:06;14.63;;;9.43;;
73296;SDS011;61524;50.938;11.396;2023-06-22T02:27:32;14.90;;;9.27;;
73296;SDS011;61524;50.938;11.396;2023-06-22T02:29:57;11.18;;;8.55;;
73296;SDS011;61524;50.938;11.396;2023-06-22T02:32:23;13.57;;;8.85;;
73296;SDS011;61524;50.938;11.396;2023-06-22T02:34:48;11.27;;;8.50;;
73296;SDS011;61524;50.938;11.396;2023-06-22T02:37:14;13.75;;;9.00;;
73296;SDS011;61524;50.938;11.396;2023-06-22T02:39:39;12.57;;;8.55;;
73296;SDS011;61524;50.938;11.396;2023-06-22T02:42:05;15.40;;;8.65;;
73296;SDS011;61524;50.938;11.396;2023-06-22T02:44:31;15.07;;;9.35;;
73296;SDS011;61524;50.938;11.396;2023-06-22T02:46:56;11.85;;;8.65;;
73296;SDS011;61524;50.938;11.396;2023-06-22T02:49:22;16.08;;;10.10;;
73296;SDS011;61524;50.938;11.396;2023-06-22T02:51:48;15.48;;;8.27;;
73296;SDS011;61524;50.938;11.396;2023-06-22T02:54:14;15.40;;;9.75;;
73296;SDS011;61524;50.938;11.396;2023-06-22T02:59:09;12.60;;;8.60;;
73296;SDS011;61524;50.938;11.396;2023-06-22T03:01:36;11.93;;;8.90;;
73296;SDS011;61524;50.938;11.396;2023-06-22T03:04:08;15.88;;;9.57;;
73296;SDS011;61524;50.938;11.396;2023-06-22T03:06:34;13.98;;;9.05;;
73296;SDS011;61524;50.938;11.396;2023-06-22T03:09:00;16.90;;;9.15;;
73296;SDS011;61524;50.938;11.396;2023-06-22T03:11:30;14.00;;;8.38;;
73296;SDS011;61524;50.938;11.396;2023-06-22T03:13:56;13.45;;;8.68;;
73296;SDS011;61524;50.938;11.396;2023-06-22T03:16:22;14.95;;;9.52;;
73296;SDS011;61524;50.938;11.396;2023-06-22T03:18:47;14.30;;;8.90;;
73296;SDS011;61524;50.938;11.396;2023-06-22T03:21:13;20.27;;;8.93;;
73296;SDS011;61524;50.938;11.396;2023-06-22T03:23:40;15.00;;;8.05;;
73296;SDS011;61524;50.938;11.396;2023-06-22T03:26:06;16.58;;;9.00;;
73296;SDS011;61524;50.938;11.396;2023-06-22T03:28:31;16.98;;;8.70;;
73296;SDS011;61524;50.938;11.396;2023-06-22T03:30:57;13.10;;;8.88;;
73296;SDS011;61524;50.938;11.396;2023-06-22T03:33:23;14.30;;;8.10;;
73296;SDS011;61524;50.938;11.396;2023-06-22T03:35:49;14.00;;;9.63;;
73296;SDS011;61524;50.938;11.396;2023-06-22T03:38:15;14.50;;;9.90;;
73296;SDS011;61524;50.938;11.396;2023-06-22T03:40:41;12.27;;;7.72;;
73296;SDS011;61524;50.938;11.396;2023-06-22T03:43:07;14.50;;;8.80;;
73296;SDS011;61524;50.938;11.396;2023-06-22T03:45:32;14.10;;;8.48;;
73296;SDS011;61524;50.938;11.396;2023-06-22T03:47:58;15.48;;;8.85;;
73296;SDS011;61524;50.938;11.396;2023-06-22T03:50:23;17.65;;;9.57;;
73296;SDS011;61524;50.938;11.396;2023-06-22T03:52:49;11.95;;;8.85;;
73296;SDS011;61524;50.938;11.396;2023-06-22T03:55:16;14.43;;;8.73;;
73296;SDS011;61524;50.938;11.396;2023-06-22T03:57:42;16.35;;;9.57;;
73296;SDS011;61524;50.938;11.396;2023-06-22T04:00:07;14.75;;;8.95;;
73296;SDS011;61524;50.938;11.396;2023-06-22T04:02:34;15.55;;;9.02;;
73296;SDS011;61524;50.938;11.396;2023-06-22T04:05:00;11.68;;;9.10;;
73296;SDS011;61524;50.938;11.396;2023-06-22T04:07:25;16.60;;;9.73;;
73296;SDS011;61524;50.938;11.396;2023-06-22T04:09:51;19.13;;;10.23;;
73296;SDS011;61524;50.938;11.396;2023-06-22T04:12:16;19.38;;;9.05;;
73296;SDS011;61524;50.938;11.396;2023-06-22T04:14:42;18.35;;;10.27;;
73296;SDS011;61524;50.938;11.396;2023-06-22T04:17:07;16.92;;;10.18;;
73296;SDS011;61524;50.938;11.396;2023-06-22T04:19:33;14.77;;;9.30;;
73296;SDS011;61524;50.938;11.396;2023-06-22T04:21:58;11.90;;;8.82;;
73296;SDS011;61524;50.938;11.396;2023-06-22T04:24:24;14.65;;;8.73;;
73296;SDS011;61524;50.938;11.396;2023-06-22T04:26:49;17.23;;;9.75;;
73296;SDS011;61524;50.938;11.396;2023-06-22T04:29:19;21.65;;;9.55;;
73296;SDS011;61524;50.938;11.396;2023-06-22T04:31:46;15.65;;;9.38;;
73296;SDS011;61524;50.938;11.396;2023-06-22T04:34:16;16.00;;;8.98;;
73296;SDS011;61524;50.938;11.396;2023-06-22T04:36:42;15.88;;;9.23;;
73296;SDS011;61524;50.938;11.396;2023-06-22T04:39:11;13.52;;;8.95;;
73296;SDS011;61524;50.938;11.396;2023-06-22T04:41:36;12.98;;;9.07;;
73296;SDS011;61524;50.938;11.396;2023-06-22T04:46:34;14.93;;;9.43;;
73296;SDS011;61524;50.938;11.396;2023-06-22T04:49:03;17.05;;;9.98;;
73296;SDS011;61524;50.938;11.396;2023-06-22T04:51:31;13.90;;;10.25;;
73296;SDS011;61524;50.938;11.396;2023-06-22T04:53:57;16.73;;;9.25;;
73296;SDS011;61524;50.938;11.396;2023-06-22T04:56:26;18.02;;;9.60;;
73296;SDS011;61524;50.938;11.396;2023-06-22T04:58:53;16.23;;;10.63;;
73296;SDS011;61524;50.938;11.396;2023-06-22T05:01:20;18.25;;;9.68;;
73296;SDS011;61524;50.938;11.396;2023-06-22T05:03:47;16.35;;;8.82;;
73296;SDS011;61524;50.938;11.396;2023-06-22T05:06:13;22.95;;;11.07;;
73296;SDS011;61524;50.938;11.396;2023-06-22T05:08:39;15.32;;;9.85;;
73296;SDS011;61524;50.938;11.396;2023-06-22T05:11:05;15.20;;;9.20;;
73296;SDS011;61524;50.938;11.396;2023-06-22T05:13:30;15.57;;;10.55;;
73296;SDS011;61524;50.938;11.396;2023-06-22T05:15:56;15.10;;;10.45;;
73296;SDS011;61524;50.938;11.396;2023-06-22T05:18:30;16.17;;;9.30;;
73296;SDS011;61524;50.938;11.396;2023-06-22T05:20:55;13.02;;;9.45;;
73296;SDS011;61524;50.938;11.396;2023-06-22T05:23:21;14.02;;;8.90;;
73296;SDS011;61524;50.938;11.396;2023-06-22T05:25:46;17.13;;;8.82;;
73296;SDS011;61524;50.938;11.396;2023-06-22T05:28:12;15.55;;;9.15;;
73296;SDS011;61524;50.938;11.396;2023-06-22T05:30:38;12.00;;;7.93;;
73296;SDS011;61524;50.938;11.396;2023-06-22T05:33:03;18.30;;;9.50;;
73296;SDS011;61524;50.938;11.396;2023-06-22T05:35:29;15.90;;;8.00;;
73296;SDS011;61524;50.938;11.396;2023-06-22T05:37:54;13.18;;;8.60;;
73296;SDS011;61524;50.938;11.396;2023-06-22T05:40:20;11.13;;;8.30;;
73296;SDS011;61524;50.938;11.396;2023-06-22T05:42:46;11.13;;;7.63;;
73296;SDS011;61524;50.938;11.396;2023-06-22T05:45:12;14.65;;;8.73;;
73296;SDS011;61524;50.938;11.396;2023-06-22T05:47:38;13.13;;;8.13;;
73296;SDS011;61524;50.938;11.396;2023-06-22T05:50:04;12.07;;;9.32;;
73296;SDS011;61524;50.938;11.396;2023-06-22T05:52:32;18.25;;;9.95;;
73296;SDS011;61524;50.938;11.396;2023-06-22T05:54:58;18.70;;;10.10;;
73296;SDS011;61524;50.938;11.396;2023-06-22T05:57:23;14.43;;;11.52;;
73296;SDS011;61524;50.938;11.396;2023-06-22T05:59:49;12.75;;;10.27;;
73296;SDS011;61524;50.938;11.396;2023-06-22T06:02:14;13.13;;;10.68;;
73296;SDS011;61524;50.938;11.396;2023-06-22T06:04:40;15.02;;;10.85;;
73296;SDS011;61524;50.938;11.396;2023-06-22T06:07:05;13.40;;;10.10;;
73296;SDS011;61524;50.938;11.396;2023-06-22T06:09:30;16.33;;;11.45;;
73296;SDS011;61524;50.938;11.396;2023-06-22T06:11:56;16.00;;;11.00;;
73296;SDS011;61524;50.938;11.396;2023-06-22T06:14:21;17.42;;;10.82;;
73296;SDS011;61524;50.938;11.396;2023-06-22T06:16:48;16.20;;;11.38;;
73296;SDS011;61524;50.938;11.396;2023-06-22T06:19:14;16.52;;;12.00;;
73296;SDS011;61524;50.938;11.396;2023-06-22T06:21:39;13.70;;;10.55;;
73296;SDS011;61524;50.938;11.396;2023-06-22T06:24:05;14.27;;;11.07;;
73296;SDS011;61524;50.938;11.396;2023-06-22T06:26:30;14.35;;;10.30;;
73296;SDS011;61524;50.938;11.396;2023-06-22T06:28:59;13.75;;;10.77;;
73296;SDS011;61524;50.938;11.396;2023-06-22T06:31:25;15.25;;;10.77;;
73296;SDS011;61524;50.938;11.396;2023-06-22T06:33:54;14.15;;;10.20;;
73296;SDS011;61524;50.938;11.396;2023-06-22T06:36:20;16.58;;;12.25;;
73296;SDS011;61524;50.938;11.396;2023-06-22T06:38:45;14.93;;;11.88;;
73296;SDS011;61524;50.938;11.396;2023-06-22T06:41:15;15.60;;;11.55;;
73296;SDS011;61524;50.938;11.396;2023-06-22T06:43:41;14.50;;;11.60;;
73296;SDS011;61524;50.938;11.396;2023-06-22T06:46:10;14.63;;;11.38;;
73296;SDS011;61524;50.938;11.396;2023-06-22T06:48:35;15.50;;;11.70;;
73296;SDS011;61524;50.938;11.396;2023-06-22T06:51:01;16.00;;;12.35;;
73296;SDS011;61524;50.938;11.396;2023-06-22T06:53:26;15.05;;;11.20;;
73296;SDS011;61524;50.938;11.396;2023-06-22T06:55:53;16.15;;;11.70;;
73296;SDS011;61524;50.938;11.396;2023-06-22T06:58:18;15.35;;;11.30;;
73296;SDS011;61524;50.938;11.396;2023-06-22T07:00:44;13.23;;;9.75;;
73296;SDS011;61524;50.938;11.396;2023-06-22T07:03:09;13.00;;;9.55;;
73296;SDS011;61524;50.938;11.396;2023-06-22T07:05:35;12.18;;;9.07;;
73296;SDS011;61524;50.938;11.396;2023-06-22T07:08:01;14.50;;;10.20;;
73296;SDS011;61524;50.938;11.396;2023-06-22T07:10:27;13.25;;;9.40;;
73296;SDS011;61524;50.938;11.396;2023-06-22T07:12:53;12.32;;;8.50;;
73296;SDS011;61524;50.938;11.396;2023-06-22T07:15:18;12.13;;;9.65;;
73296;SDS011;61524;50.938;11.396;2023-06-22T07:17:44;13.48;;;9.32;;
73296;SDS011;61524;50.938;11.396;2023-06-22T07:20:09;13.63;;;10.00;;
73296;SDS011;61524;50.938;11.396;2023-06-22T07:22:37;15.20;;;9.60;;
73296;SDS011;61524;50.938;11.396;2023-06-22T07:25:03;14.20;;;9.70;;
73296;SDS011;61524;50.938;11.396;2023-06-22T07:27:34;12.40;;;8.80;;
73296;SDS011;61524;50.938;11.396;2023-06-22T07:30:02;14.45;;;10.07;;
73296;SDS011;61524;50.938;11.396;2023-06-22T07:32:28;13.38;;;9.10;;
73296;SDS011;61524;50.938;11.396;2023-06-22T07:34:54;17.73;;;8.95;;
73296;SDS011;61524;50.938;11.396;2023-06-22T07:37:19;12.98;;;9.50;;
73296;SDS011;61524;50.938;11.396;2023-06-22T07:39:46;14.38;;;9.82;;
73296;SDS011;61524;50.938;11.396;2023-06-22T07:42:11;11.65;;;9.45;;
73296;SDS011;61524;50.938;11.396;2023-06-22T07:44:37;13.85;;;9.30;;
73296;SDS011;61524;50.938;11.396;2023-06-22T07:47:02;13.70;;;9.70;;
73296;SDS011;61524;50.938;11.396;2023-06-22T07:49:28;12.65;;;8.73;;
73296;SDS011;61524;50.938;11.396;2023-06-22T07:54:19;12.07;;;9.32;;
73296;SDS011;61524;50.938;11.396;2023-06-22T07:56:46;13.20;;;8.57;;
73296;SDS011;61524;50.938;11.396;2023-06-22T08:01:36;11.07;;;8.20;;
73296;SDS011;61524;50.938;11.396;2023-06-22T08:04:02;11.88;;;8.85;;
73296;SDS011;61524;50.938;11.396;2023-06-22T08:06:29;13.63;;;8.00;;
73296;SDS011;61524;50.938;11.396;2023-06-22T08:08:55;10.70;;;7.32;;
73296;SDS011;61524;50.938;11.396;2023-06-22T08:11:22;13.15;;;10.43;;
73296;SDS011;61524;50.938;11.396;2023-06-22T08:13:48;11.68;;;8.60;;
73296;SDS011;61524;50.938;11.396;2023-06-22T08:16:15;10.00;;;7.68;;
73296;SDS011;61524;50.938;11.396;2023-06-22T08:18:40;14.63;;;9.32;;
73296;SDS011;61524;50.938;11.396;2023-06-22T08:21:05;13.02;;;8.73;;
73296;SDS011;61524;50.938;11.396;2023-06-22T08:23:31;12.68;;;9.38;;
73296;SDS011;61524;50.938;11.396;2023-06-22T08:25:56;10.68;;;8.40;;
73296;SDS011;61524;50.938;11.396;2023-06-22T08:28:22;10.60;;;8.52;;
73296;SDS011;61524;50.938;11.396;2023-06-22T08:30:47;10.18;;;7.85;;
73296;SDS011;61524;50.938;11.396;2023-06-22T08:33:13;10.38;;;8.38;;
73296;SDS011;61524;50.938;11.396;2023-06-22T08:35:38;13.65;;;7.28;;
73296;SDS011;61524;50.938;11.396;2023-06-22T08:38:04;9.43;;;6.68;;
73296;SDS011;61524;50.938;11.396;2023-06-22T08:40:29;9.38;;;7.50;;
73296;SDS011;61524;50.938;11.396;2023-06-22T08:42:55;10.20;;;6.88;;
73296;SDS011;61524;50.938;11.396;2023-06-22T08:45:20;10.90;;;7.07;;
73296;SDS011;61524;50.938;11.396;2023-06-22T08:47:46;10.88;;;7.65;;
73296;SDS011;61524;50.938;11.396;2023-06-22T08:50:12;11.00;;;6.90;;
73296;SDS011;61524;50.938;11.396;2023-06-22T08:52:38;8.52;;;6.43;;
73296;SDS011;61524;50.938;11.396;2023-06-22T08:55:06;11.27;;;6.40;;
73296;SDS011;61524;50.938;11.396;2023-06-22T08:57:32;9.63;;;6.13;;
73296;SDS011;61524;50.938;11.396;2023-06-22T08:59:58;8.82;;;6.07;;
73296;SDS011;61524;50.938;11.396;2023-06-22T09:02:27;8.90;;;6.43;;
73296;SDS011;61524;50.938;11.396;2023-06-22T09:04:56;9.23;;;6.97;;
73296;SDS011;61524;50.938;11.396;2023-06-22T09:07:22;10.43;;;5.60;;
73296;SDS011;61524;50.938;11.396;2023-06-22T09:09:49;8.60;;;6.00;;
73296;SDS011;61524;50.938;11.396;2023-06-22T09:12:15;8.40;;;6.75;;
73296;SDS011;61524;50.938;11.396;2023-06-22T09:14:41;8.05;;;6.03;;
73296;SDS011;61524;50.938;11.396;2023-06-22T09:17:06;8.57;;;6.28;;
73296;SDS011;61524;50.938;11.396;2023-06-22T09:19:32;9.38;;;6.97;;
73296;SDS011;61524;50.938;11.396;2023-06-22T09:21:58;8.25;;;6.60;;
73296;SDS011;61524;50.938;11.396;2023-06-22T09:24:23;7.22;;;5.82;;
73296;SDS011;61524;50.938;11.396;2023-06-22T09:26:49;9.80;;;6.43;;
73296;SDS011;61524;50.938;11.396;2023-06-22T09:29:15;9.27;;;6.50;;
73296;SDS011;61524;50.938;11.396;2023-06-22T09:31:41;9.50;;;7.10;;
73296;SDS011;61524;50.938;11.396;2023-06-22T09:34:06;9.45;;;6.07;;
73296;SDS011;61524;50.938;11.396;2023-06-22T09:36:32;9.07;;;6.43;;
73296;SDS011;61524;50.938;11.396;2023-06-22T09:38:57;8.43;;;6.07;;
73296;SDS011;61524;50.938;11.396;2023-06-22T09:43:49;8.38;;;5.63;;
73296;SDS011;61524;50.938;11.396;2023-06-22T09:46:15;8.63;;;5.95;;
73296;SDS011;61524;50.938;11.396;2023-06-22T09:48:41;9.05;;;6.22;;
73296;SDS011;61524;50.938;11.396;2023-06-22T09:51:07;7.70;;;5.78;;
73296;SDS011;61524;50.938;11.396;2023-06-22T09:53:32;7.35;;;5.65;;
73296;SDS011;61524;50.938;11.396;2023-06-22T09:55:59;7.38;;;5.85;;
73296;SDS011;61524;50.938;11.396;2023-06-22T09:58:25;7.35;;;5.55;;
73296;SDS011;61524;50.938;11.396;2023-06-22T10:00:50;7.25;;;4.80;;
73296;SDS011;61524;50.938;11.396;2023-06-22T10:03:16;8.70;;;6.28;;
73296;SDS011;61524;50.938;11.396;2023-06-22T10:05:41;7.63;;;5.95;;
73296;SDS011;61524;50.938;11.396;2023-06-22T10:08:07;8.75;;;6.22;;
73296;SDS011;61524;50.938;11.396;2023-06-22T10:10:34;8.07;;;6.15;;
73296;SDS011;61524;50.938;11.396;2023-06-22T10:13:02;8.95;;;6.20;;
73296;SDS011;61524;50.938;11.396;2023-06-22T10:15:34;9.48;;;6.47;;
73296;SDS011;61524;50.938;11.396;2023-06-22T10:17:59;6.78;;;5.38;;
73296;SDS011;61524;50.938;11.396;2023-06-22T10:20:24;8.02;;;5.18;;
73296;SDS011;61524;50.938;11.396;2023-06-22T10:22:51;7.97;;;5.40;;
73296;SDS011;61524;50.938;11.396;2023-06-22T10:25:16;8.55;;;5.93;;
73296;SDS011;61524;50.938;11.396;2023-06-22T10:27:42;8.43;;;5.63;;
73296;SDS011;61524;50.938;11.396;2023-06-22T10:30:08;10.38;;;6.47;;
73296;SDS011;61524;50.938;11.396;2023-06-22T10:32:35;7.78;;;5.82;;
73296;SDS011;61524;50.938;11.396;2023-06-22T10:35:01;9.57;;;5.82;;
73296;SDS011;61524;50.938;11.396;2023-06-22T10:37:27;8.15;;;5.90;;
73296;SDS011;61524;50.938;11.396;2023-06-22T10:39:52;8.90;;;6.03;;
73296;SDS011;61524;50.938;11.396;2023-06-22T10:42:18;7.90;;;5.55;;
73296;SDS011;61524;50.938;11.396;2023-06-22T10:44:43;7.57;;;5.70;;
73296;SDS011;61524;50.938;11.396;2023-06-22T10:47:09;9.18;;;5.95;;
73296;SDS011;61524;50.938;11.396;2023-06-22T10:49:37;8.50;;;5.40;;
73296;SDS011;61524;50.938;11.396;2023-06-22T10:52:08;7.68;;;5.68;;
73296;SDS011;61524;50.938;11.396;2023-06-22T10:54:35;8.25;;;5.82;;
73296;SDS011;61524;50.938;11.396;2023-06-22T10:57:02;11.30;;;6.72;;
73296;SDS011;61524;50.938;11.396;2023-06-22T10:59:27;8.52;;;5.57;;
73296;SDS011;61524;50.938;11.396;2023-06-22T11:01:55;8.05;;;5.70;;
73296;SDS011;61524;50.938;11.396;2023-06-22T11:04:21;7.47;;;5.65;;
73296;SDS011;61524;50.938;11.396;2023-06-22T11:06:47;7.90;;;6.38;;
73296;SDS011;61524;50.938;11.396;2023-06-22T11:09:13;7.38;;;5.55;;
73296;SDS011;61524;50.938;11.396;2023-06-22T11:11:43;10.95;;;6.15;;
73296;SDS011;61524;50.938;11.396;2023-06-22T11:14:09;8.05;;;5.93;;
73296;SDS011;61524;50.938;11.396;2023-06-22T11:16:34;7.88;;;5.72;;
73296;SDS011;61524;50.938;11.396;2023-06-22T11:19:00;7.40;;;5.40;;
73296;SDS011;61524;50.938;11.396;2023-06-22T11:21:25;8.93;;;6.40;;
73296;SDS011;61524;50.938;11.396;2023-06-22T11:23:51;9.25;;;6.07;;
73296;SDS011;61524;50.938;11.396;2023-06-22T11:26:16;7.78;;;5.82;;
73296;SDS011;61524;50.938;11.396;2023-06-22T11:28:41;6.35;;;4.88;;
73296;SDS011;61524;50.938;11.396;2023-06-22T11:31:07;8.52;;;5.63;;
73296;SDS011;61524;50.938;11.396;2023-06-22T11:33:32;11.32;;;6.03;;
73296;SDS011;61524;50.938;11.396;2023-06-22T11:35:58;7.38;;;5.90;;
73296;SDS011;61524;50.938;11.396;2023-06-22T11:38:23;7.80;;;6.57;;
73296;SDS011;61524;50.938;11.396;2023-06-22T11:40:49;8.13;;;5.78;;
73296;SDS011;61524;50.938;11.396;2023-06-22T11:43:14;8.07;;;5.55;;
73296;SDS011;61524;50.938;11.396;2023-06-22T11:45:40;7.50;;;6.00;;
73296;SDS011;61524;50.938;11.396;2023-06-22T11:48:05;8.77;;;6.65;;
73296;SDS011;61524;50.938;11.396;2023-06-22T11:50:31;10.45;;;6.05;;
73296;SDS011;61524;50.938;11.396;2023-06-22T11:53:00;8.23;;;5.45;;
73296;SDS011;61524;50.938;11.396;2023-06-22T11:55:26;7.93;;;6.07;;
73296;SDS011;61524;50.938;11.396;2023-06-22T11:57:56;7.38;;;6.32;;
73296;SDS011;61524;50.938;11.396;2023-06-22T12:00:25;9.30;;;6.18;;
73296;SDS011;61524;50.938;11.396;2023-06-22T12:02:51;10.00;;;6.15;;
73296;SDS011;61524;50.938;11.396;2023-06-22T12:05:20;7.72;;;6.25;;
73296;SDS011;61524;50.938;11.396;2023-06-22T12:07:49;10.10;;;6.70;;
73296;SDS011;61524;50.938;11.396;2023-06-22T12:10:15;8.60;;;6.20;;
73296;SDS011;61524;50.938;11.396;2023-06-22T12:12:41;8.48;;;5.90;;
73296;SDS011;61524;50.938;11.396;2023-06-22T12:15:08;8.93;;;6.53;;
73296;SDS011;61524;50.938;11.396;2023-06-22T12:17:34;8.40;;;6.47;;
73296;SDS011;61524;50.938;11.396;2023-06-22T12:20:00;7.93;;;6.78;;
73296;SDS011;61524;50.938;11.396;2023-06-22T12:22:26;8.32;;;6.00;;
73296;SDS011;61524;50.938;11.396;2023-06-22T12:24:52;8.32;;;6.45;;
73296;SDS011;61524;50.938;11.396;2023-06-22T12:27:17;10.60;;;6.15;;
73296;SDS011;61524;50.938;11.396;2023-06-22T12:29:45;9.13;;;6.63;;
73296;SDS011;61524;50.938;11.396;2023-06-22T12:32:11;10.00;;;6.28;;
73296;SDS011;61524;50.938;11.396;2023-06-22T12:34:41;8.07;;;5.68;;
73296;SDS011;61524;50.938;11.396;2023-06-22T12:37:07;8.35;;;6.03;;
73296;SDS011;61524;50.938;11.396;2023-06-22T12:39:33;9.40;;;6.15;;
73296;SDS011;61524;50.938;11.396;2023-06-22T12:44:23;11.13;;;7.03;;
73296;SDS011;61524;50.938;11.396;2023-06-22T12:46:49;8.65;;;5.78;;
73296;SDS011;61524;50.938;11.396;2023-06-22T12:49:14;8.05;;;6.10;;
73296;SDS011;61524;50.938;11.396;2023-06-22T12:51:40;8.73;;;6.38;;
73296;SDS011;61524;50.938;11.396;2023-06-22T12:54:07;7.50;;;5.57;;
73296;SDS011;61524;50.938;11.396;2023-06-22T12:56:33;7.30;;;5.75;;
73296;SDS011;61524;50.938;11.396;2023-06-22T13:01:26;8.80;;;6.07;;
73296;SDS011;61524;50.938;11.396;2023-06-22T13:03:52;7.22;;;5.95;;
73296;SDS011;61524;50.938;11.396;2023-06-22T13:06:18;8.75;;;6.60;;
73296;SDS011;61524;50.938;11.396;2023-06-22T13:08:43;8.70;;;7.03;;
73296;SDS011;61524;50.938;11.396;2023-06-22T13:13:34;8.05;;;5.72;;
73296;SDS011;61524;50.938;11.396;2023-06-22T13:15:59;10.10;;;6.57;;
73296;SDS011;61524;50.938;11.396;2023-06-22T13:18:25;8.82;;;5.85;;
73296;SDS011;61524;50.938;11.396;2023-06-22T13:20:50;8.27;;;5.72;;
73296;SDS011;61524;50.938;11.396;2023-06-22T13:23:16;8.95;;;6.20;;
73296;SDS011;61524;50.938;11.396;2023-06-22T13:28:07;8.05;;;5.13;;
73296;SDS011;61524;50.938;11.396;2023-06-22T13:30:33;7.63;;;5.57;;
73296;SDS011;61524;50.938;11.396;2023-06-22T13:32:58;7.47;;;5.82;;
73296;SDS011;61524;50.938;11.396;2023-06-22T13:37:49;8.68;;;6.07;;
73296;SDS011;61524;50.938;11.396;2023-06-22T13:40:15;7.97;;;6.90;;
73296;SDS011;61524;50.938;11.396;2023-06-22T13:45:06;10.20;;;7.20;;
73296;SDS011;61524;50.938;11.396;2023-06-22T13:47:32;10.25;;;6.30;;
73296;SDS011;61524;50.938;11.396;2023-06-22T13:49:58;7.50;;;5.80;;
73296;SDS011;61524;50.938;11.396;2023-06-22T13:52:24;8.60;;;6.20;;
73296;SDS011;61524;50.938;11.396;2023-06-22T13:54:50;9.57;;;6.65;;
73296;SDS011;61524;50.938;11.396;2023-06-22T13:57:15;7.55;;;6.28;;
73296;SDS011;61524;50.938;11.396;2023-06-22T13:59:41;8.18;;;6.50;;
73296;SDS011;61524;50.938;11.396;2023-06-22T14:02:06;7.55;;;6.43;;
73296;SDS011;61524;50.938;11.396;2023-06-22T14:06:57;9.13;;;6.80;;
73296;SDS011;61524;50.938;11.396;2023-06-22T14:09:22;8.90;;;6.07;;
73296;SDS011;61524;50.938;11.396;2023-06-22T14:14:13;7.87;;;6.00;;
73296;SDS011;61524;50.938;11.396;2023-06-22T14:16:38;8.68;;;6.07;;
73296;SDS011;61524;50.938;11.396;2023-06-22T14:21:29;7.93;;;6.80;;
73296;SDS011;61524;50.938;11.396;2023-06-22T14:23:55;9.18;;;7.30;;
73296;SDS011;61524;50.938;11.396;2023-06-22T14:26:20;8.25;;;6.63;;
73296;SDS011;61524;50.938;11.396;2023-06-22T14:28:47;8.82;;;6.53;;
73296;SDS011;61524;50.938;11.396;2023-06-22T14:31:15;8.55;;;5.78;;
73296;SDS011;61524;50.938;11.396;2023-06-22T14:33:45;10.32;;;6.22;;
73296;SDS011;61524;50.938;11.396;2023-06-22T14:36:12;9.68;;;5.97;;
73296;SDS011;61524;50.938;11.396;2023-06-22T14:38:38;9.60;;;6.53;;
73296;SDS011;61524;50.938;11.396;2023-06-22T14:41:04;9.15;;;6.47;;
73296;SDS011;61524;50.938;11.396;2023-06-22T14:43:29;10.45;;;6.95;;
73296;SDS011;61524;50.938;11.396;2023-06-22T14:48:20;9.50;;;6.95;;
73296;SDS011;61524;50.938;11.396;2023-06-22T14:50:46;7.95;;;6.75;;
73296;SDS011;61524;50.938;11.396;2023-06-22T14:53:11;7.97;;;5.70;;
73296;SDS011;61524;50.938;11.396;2023-06-22T14:58:02;8.97;;;6.30;;
73296;SDS011;61524;50.938;11.396;2023-06-22T15:00:27;11.73;;;6.65;;
73296;SDS011;61524;50.938;11.396;2023-06-22T15:05:18;9.82;;;6.70;;
73296;SDS011;61524;50.938;11.396;2023-06-22T15:07:44;13.02;;;6.50;;
73296;SDS011;61524;50.938;11.396;2023-06-22T15:12:34;9.25;;;6.40;;
73296;SDS011;61524;50.938;11.396;2023-06-22T15:17:26;7.77;;;5.47;;
73296;SDS011;61524;50.938;11.396;2023-06-22T15:19:54;10.23;;;6.88;;
73296;SDS011;61524;50.938;11.396;2023-06-22T15:22:20;11.50;;;6.50;;